sensor_id;sensor_type;location;lat;lon;timestamp;temperature;humidity
10566;DHT22;5331;48.148;16.326;2023-08-12T00:00:13;16.30;1.00
10566;DHT22;5331;48.148;16.326;2023-08-12T00:02:40;16.30;1.00
10566;DHT22;5331;48.148;16.326;2023-08-12T00:05:08;16.20;1.00
10566;DHT22;5331;48.148;16.326;2023-08-12T00:07:37;16.20;1.00
10566;DHT22;5331;48.148;16.326;2023-08-12T00:10:05;16.20;1.00
10566;DHT22;5331;48.148;16.326;2023-08-12T00:12:32;16.10;1.00
10566;DHT22;5331;48.148;16.326;2023-08-12T00:14:59;16.10;1.00
10566;DHT22;5331;48.148;16.326;2023-08-12T00:17:27;16.00;1.00
10566;DHT22;5331;48.148;16.326;2023-08-12T00:19:54;16.00;1.00
10566;DHT22;5331;48.148;16.326;2023-08-12T00:22:21;16.00;1.00
10566;DHT22;5331;48.148;16.326;2023-08-12T00:24:48;16.00;1.00
10566;DHT22;5331;48.148;16.326;2023-08-12T00:27:15;15.90;1.00
10566;DHT22;5331;48.148;16.326;2023-08-12T00:29:42;15.90;1.00
10566;DHT22;5331;48.148;16.326;2023-08-12T00:32:09;15.90;1.00
10566;DHT22;5331;48.148;16.326;2023-08-12T00:34:38;15.80;1.00
10566;DHT22;5331;48.148;16.326;2023-08-12T00:37:04;15.70;1.00
10566;DHT22;5331;48.148;16.326;2023-08-12T00:39:31;15.70;1.00
10566;DHT22;5331;48.148;16.326;2023-08-12T00:41:58;15.70;1.00
10566;DHT22;5331;48.148;16.326;2023-08-12T00:44:25;15.70;1.00
10566;DHT22;5331;48.148;16.326;2023-08-12T00:46:52;15.70;1.00
10566;DHT22;5331;48.148;16.326;2023-08-12T00:49:20;15.60;1.00
10566;DHT22;5331;48.148;16.326;2023-08-12T00:51:49;15.60;1.00
10566;DHT22;5331;48.148;16.326;2023-08-12T00:54:17;15.60;1.00
10566;DHT22;5331;48.148;16.326;2023-08-12T00:56:46;15.60;1.00
10566;DHT22;5331;48.148;16.326;2023-08-12T00:59:13;15.60;1.00
10566;DHT22;5331;48.148;16.326;2023-08-12T01:01:41;15.60;1.00
10566;DHT22;5331;48.148;16.326;2023-08-12T01:04:08;15.60;1.00
10566;DHT22;5331;48.148;16.326;2023-08-12T01:06:36;15.50;1.00
10566;DHT22;5331;48.148;16.326;2023-08-12T01:09:05;15.50;1.00
10566;DHT22;5331;48.148;16.326;2023-08-12T01:11:36;15.50;1.00
10566;DHT22;5331;48.148;16.326;2023-08-12T01:14:08;15.50;1.00
10566;DHT22;5331;48.148;16.326;2023-08-12T01:16:42;15.50;1.00
10566;DHT22;5331;48.148;16.326;2023-08-12T01:19:12;15.50;1.00
10566;DHT22;5331;48.148;16.326;2023-08-12T01:21:44;15.50;1.00
10566;DHT22;5331;48.148;16.326;2023-08-12T01:24:13;15.40;1.00
10566;DHT22;5331;48.148;16.326;2023-08-12T01:26:40;15.30;1.00
10566;DHT22;5331;48.148;16.326;2023-08-12T01:29:07;15.40;1.00
10566;DHT22;5331;48.148;16.326;2023-08-12T01:31:38;15.30;1.00
10566;DHT22;5331;48.148;16.326;2023-08-12T01:34:11;15.30;1.00
10566;DHT22;5331;48.148;16.326;2023-08-12T01:36:40;15.20;1.00
10566;DHT22;5331;48.148;16.326;2023-08-12T01:39:08;15.20;1.00
10566;DHT22;5331;48.148;16.326;2023-08-12T01:41:38;15.10;1.00
10566;DHT22;5331;48.148;16.326;2023-08-12T01:44:05;15.10;1.00
10566;DHT22;5331;48.148;16.326;2023-08-12T01:46:32;15.10;1.00
10566;DHT22;5331;48.148;16.326;2023-08-12T01:48:59;15.10;1.00
10566;DHT22;5331;48.148;16.326;2023-08-12T01:51:26;15.10;1.00
10566;DHT22;5331;48.148;16.326;2023-08-12T01:53:53;15.10;1.00
10566;DHT22;5331;48.148;16.326;2023-08-12T01:56:20;15.10;1.00
10566;DHT22;5331;48.148;16.326;2023-08-12T01:58:48;15.10;1.00
10566;DHT22;5331;48.148;16.326;2023-08-12T02:01:15;15.10;1.00
10566;DHT22;5331;48.148;16.326;2023-08-12T02:03:41;15.10;1.00
10566;DHT22;5331;48.148;16.326;2023-08-12T02:06:08;15.10;1.00
10566;DHT22;5331;48.148;16.326;2023-08-12T02:08:35;15.00;1.00
10566;DHT22;5331;48.148;16.326;2023-08-12T02:11:02;15.10;1.00
10566;DHT22;5331;48.148;16.326;2023-08-12T02:13:29;15.00;1.00
10566;DHT22;5331;48.148;16.326;2023-08-12T02:15:58;15.00;1.00
10566;DHT22;5331;48.148;16.326;2023-08-12T02:18:24;15.00;1.00
10566;DHT22;5331;48.148;16.326;2023-08-12T02:20:51;15.00;1.00
10566;DHT22;5331;48.148;16.326;2023-08-12T02:23:18;14.90;1.00
10566;DHT22;5331;48.148;16.326;2023-08-12T02:25:45;15.00;1.00
10566;DHT22;5331;48.148;16.326;2023-08-12T02:28:12;15.00;1.00
10566;DHT22;5331;48.148;16.326;2023-08-12T02:30:42;15.00;1.00
10566;DHT22;5331;48.148;16.326;2023-08-12T02:33:10;15.00;1.00
10566;DHT22;5331;48.148;16.326;2023-08-12T02:35:38;15.00;1.00
10566;DHT22;5331;48.148;16.326;2023-08-12T02:38:05;15.00;1.00
10566;DHT22;5331;48.148;16.326;2023-08-12T02:40:32;14.90;1.00
10566;DHT22;5331;48.148;16.326;2023-08-12T02:42:59;14.90;1.00
10566;DHT22;5331;48.148;16.326;2023-08-12T02:45:26;14.90;1.00
10566;DHT22;5331;48.148;16.326;2023-08-12T02:47:52;14.90;1.00
10566;DHT22;5331;48.148;16.326;2023-08-12T02:50:20;14.90;1.00
10566;DHT22;5331;48.148;16.326;2023-08-12T02:52:47;14.80;1.00
10566;DHT22;5331;48.148;16.326;2023-08-12T02:55:15;14.80;1.00
10566;DHT22;5331;48.148;16.326;2023-08-12T02:57:42;14.80;1.00
10566;DHT22;5331;48.148;16.326;2023-08-12T03:00:10;14.80;1.00
10566;DHT22;5331;48.148;16.326;2023-08-12T03:02:37;14.70;1.00
10566;DHT22;5331;48.148;16.326;2023-08-12T03:05:05;14.70;1.00
10566;DHT22;5331;48.148;16.326;2023-08-12T03:07:34;14.70;1.00
10566;DHT22;5331;48.148;16.326;2023-08-12T03:10:00;14.60;1.00
10566;DHT22;5331;48.148;16.326;2023-08-12T03:12:27;14.60;1.00
10566;DHT22;5331;48.148;16.326;2023-08-12T03:14:54;14.60;1.00
10566;DHT22;5331;48.148;16.326;2023-08-12T03:17:21;14.60;1.00
10566;DHT22;5331;48.148;16.326;2023-08-12T03:19:48;14.60;1.00
10566;DHT22;5331;48.148;16.326;2023-08-12T03:22:15;14.50;1.00
10566;DHT22;5331;48.148;16.326;2023-08-12T03:24:43;14.60;1.00
10566;DHT22;5331;48.148;16.326;2023-08-12T03:27:10;14.50;1.00
10566;DHT22;5331;48.148;16.326;2023-08-12T03:29:37;14.50;1.00
10566;DHT22;5331;48.148;16.326;2023-08-12T03:32:04;14.50;1.00
10566;DHT22;5331;48.148;16.326;2023-08-12T03:34:31;14.50;1.00
10566;DHT22;5331;48.148;16.326;2023-08-12T03:36:58;14.50;1.00
10566;DHT22;5331;48.148;16.326;2023-08-12T03:39:25;14.50;1.00
10566;DHT22;5331;48.148;16.326;2023-08-12T03:41:53;14.50;1.00
10566;DHT22;5331;48.148;16.326;2023-08-12T03:44:20;14.50;1.00
10566;DHT22;5331;48.148;16.326;2023-08-12T03:46:47;14.40;1.00
10566;DHT22;5331;48.148;16.326;2023-08-12T03:49:14;14.40;1.00
10566;DHT22;5331;48.148;16.326;2023-08-12T03:51:41;14.40;1.00
10566;DHT22;5331;48.148;16.326;2023-08-12T03:54:07;14.40;1.00
10566;DHT22;5331;48.148;16.326;2023-08-12T03:56:34;14.40;1.00
10566;DHT22;5331;48.148;16.326;2023-08-12T03:59:02;14.40;1.00
10566;DHT22;5331;48.148;16.326;2023-08-12T04:01:29;14.40;1.00
10566;DHT22;5331;48.148;16.326;2023-08-12T04:03:56;14.40;1.00
10566;DHT22;5331;48.148;16.326;2023-08-12T04:06:23;14.30;1.00
10566;DHT22;5331;48.148;16.326;2023-08-12T04:08:50;14.40;1.00
10566;DHT22;5331;48.148;16.326;2023-08-12T04:11:17;14.30;1.00
10566;DHT22;5331;48.148;16.326;2023-08-12T04:13:43;14.40;1.00
10566;DHT22;5331;48.148;16.326;2023-08-12T04:16:12;14.30;1.00
10566;DHT22;5331;48.148;16.326;2023-08-12T04:18:39;14.40;1.00
10566;DHT22;5331;48.148;16.326;2023-08-12T04:21:05;14.30;1.00
10566;DHT22;5331;48.148;16.326;2023-08-12T04:23:32;14.40;1.00
10566;DHT22;5331;48.148;16.326;2023-08-12T04:25:59;14.40;1.00
10566;DHT22;5331;48.148;16.326;2023-08-12T04:28:26;14.40;1.00
10566;DHT22;5331;48.148;16.326;2023-08-12T04:30:53;14.40;1.00
10566;DHT22;5331;48.148;16.326;2023-08-12T04:33:22;14.40;1.00
10566;DHT22;5331;48.148;16.326;2023-08-12T04:35:49;14.50;1.00
10566;DHT22;5331;48.148;16.326;2023-08-12T04:38:16;14.50;1.00
10566;DHT22;5331;48.148;16.326;2023-08-12T04:40:43;14.50;1.00
10566;DHT22;5331;48.148;16.326;2023-08-12T04:43:10;14.60;1.00
10566;DHT22;5331;48.148;16.326;2023-08-12T04:45:38;14.70;1.00
10566;DHT22;5331;48.148;16.326;2023-08-12T04:48:06;14.70;1.00
10566;DHT22;5331;48.148;16.326;2023-08-12T04:50:35;14.80;1.00
10566;DHT22;5331;48.148;16.326;2023-08-12T04:53:02;14.80;1.00
10566;DHT22;5331;48.148;16.326;2023-08-12T04:55:29;14.90;1.00
10566;DHT22;5331;48.148;16.326;2023-08-12T04:57:55;15.00;1.00
10566;DHT22;5331;48.148;16.326;2023-08-12T05:00:23;15.10;1.00
10566;DHT22;5331;48.148;16.326;2023-08-12T05:02:49;15.10;1.00
10566;DHT22;5331;48.148;16.326;2023-08-12T05:05:16;15.20;1.00
10566;DHT22;5331;48.148;16.326;2023-08-12T05:07:45;15.30;1.00
10566;DHT22;5331;48.148;16.326;2023-08-12T05:10:14;15.30;1.00
10566;DHT22;5331;48.148;16.326;2023-08-12T05:12:41;15.40;1.00
10566;DHT22;5331;48.148;16.326;2023-08-12T05:15:09;15.50;1.00
10566;DHT22;5331;48.148;16.326;2023-08-12T05:17:36;15.50;1.00
10566;DHT22;5331;48.148;16.326;2023-08-12T05:20:03;15.60;1.00
10566;DHT22;5331;48.148;16.326;2023-08-12T05:22:31;15.70;1.00
10566;DHT22;5331;48.148;16.326;2023-08-12T05:24:59;15.80;1.00
10566;DHT22;5331;48.148;16.326;2023-08-12T05:27:26;15.80;1.00
10566;DHT22;5331;48.148;16.326;2023-08-12T05:29:53;15.90;1.00
10566;DHT22;5331;48.148;16.326;2023-08-12T05:32:19;16.00;1.00
10566;DHT22;5331;48.148;16.326;2023-08-12T05:34:49;16.00;1.00
10566;DHT22;5331;48.148;16.326;2023-08-12T05:37:16;16.20;1.00
10566;DHT22;5331;48.148;16.326;2023-08-12T05:39:43;16.20;1.00
10566;DHT22;5331;48.148;16.326;2023-08-12T05:42:11;16.30;1.00
10566;DHT22;5331;48.148;16.326;2023-08-12T05:44:40;16.40;1.00
10566;DHT22;5331;48.148;16.326;2023-08-12T05:47:07;16.50;1.00
10566;DHT22;5331;48.148;16.326;2023-08-12T05:49:34;16.60;1.00
10566;DHT22;5331;48.148;16.326;2023-08-12T05:52:01;16.70;1.00
10566;DHT22;5331;48.148;16.326;2023-08-12T05:54:28;16.80;1.00
10566;DHT22;5331;48.148;16.326;2023-08-12T05:56:55;16.90;1.00
10566;DHT22;5331;48.148;16.326;2023-08-12T05:59:23;17.00;1.00
10566;DHT22;5331;48.148;16.326;2023-08-12T06:01:50;17.30;1.00
10566;DHT22;5331;48.148;16.326;2023-08-12T06:04:16;17.90;1.00
10566;DHT22;5331;48.148;16.326;2023-08-12T06:06:43;18.60;1.00
10566;DHT22;5331;48.148;16.326;2023-08-12T06:09:10;19.30;1.00
10566;DHT22;5331;48.148;16.326;2023-08-12T06:11:37;19.80;1.00
10566;DHT22;5331;48.148;16.326;2023-08-12T06:14:04;20.50;1.00
10566;DHT22;5331;48.148;16.326;2023-08-12T06:16:32;21.30;1.00
10566;DHT22;5331;48.148;16.326;2023-08-12T06:18:59;21.70;1.00
10566;DHT22;5331;48.148;16.326;2023-08-12T06:21:27;22.20;1.00
10566;DHT22;5331;48.148;16.326;2023-08-12T06:23:53;22.40;1.00
10566;DHT22;5331;48.148;16.326;2023-08-12T06:26:20;22.50;1.00
10566;DHT22;5331;48.148;16.326;2023-08-12T06:28:47;22.70;1.00
10566;DHT22;5331;48.148;16.326;2023-08-12T06:31:14;23.00;1.00
10566;DHT22;5331;48.148;16.326;2023-08-12T06:33:43;23.30;1.00
10566;DHT22;5331;48.148;16.326;2023-08-12T06:36:09;23.60;1.00
10566;DHT22;5331;48.148;16.326;2023-08-12T06:38:36;23.80;1.00
10566;DHT22;5331;48.148;16.326;2023-08-12T06:41:03;23.90;1.00
10566;DHT22;5331;48.148;16.326;2023-08-12T06:43:30;23.90;1.00
10566;DHT22;5331;48.148;16.326;2023-08-12T06:45:57;23.90;1.00
10566;DHT22;5331;48.148;16.326;2023-08-12T06:48:23;24.20;1.00
10566;DHT22;5331;48.148;16.326;2023-08-12T06:50:54;24.40;1.00
10566;DHT22;5331;48.148;16.326;2023-08-12T06:53:22;24.60;1.00
10566;DHT22;5331;48.148;16.326;2023-08-12T06:55:49;24.80;1.00
10566;DHT22;5331;48.148;16.326;2023-08-12T06:58:15;24.90;1.00
10566;DHT22;5331;48.148;16.326;2023-08-12T07:00:42;24.60;1.00
10566;DHT22;5331;48.148;16.326;2023-08-12T07:03:09;24.80;1.00
10566;DHT22;5331;48.148;16.326;2023-08-12T07:05:36;25.10;1.00
10566;DHT22;5331;48.148;16.326;2023-08-12T07:08:05;25.30;1.00
10566;DHT22;5331;48.148;16.326;2023-08-12T07:10:32;25.60;1.00
10566;DHT22;5331;48.148;16.326;2023-08-12T07:12:58;25.90;1.00
10566;DHT22;5331;48.148;16.326;2023-08-12T07:15:25;26.00;1.00
10566;DHT22;5331;48.148;16.326;2023-08-12T07:17:52;26.30;1.00
10566;DHT22;5331;48.148;16.326;2023-08-12T07:20:19;26.50;1.00
10566;DHT22;5331;48.148;16.326;2023-08-12T07:22:46;26.60;1.00
10566;DHT22;5331;48.148;16.326;2023-08-12T07:25:14;26.50;1.00
10566;DHT22;5331;48.148;16.326;2023-08-12T07:27:41;26.70;1.00
10566;DHT22;5331;48.148;16.326;2023-08-12T07:30:08;26.60;1.00
10566;DHT22;5331;48.148;16.326;2023-08-12T07:32:36;26.40;1.00
10566;DHT22;5331;48.148;16.326;2023-08-12T07:35:05;26.40;1.00
10566;DHT22;5331;48.148;16.326;2023-08-12T07:37:32;26.40;1.00
10566;DHT22;5331;48.148;16.326;2023-08-12T07:39:59;26.30;1.00
10566;DHT22;5331;48.148;16.326;2023-08-12T07:42:27;26.20;1.00
10566;DHT22;5331;48.148;16.326;2023-08-12T07:44:54;26.10;1.00
10566;DHT22;5331;48.148;16.326;2023-08-12T07:47:21;26.10;1.00
10566;DHT22;5331;48.148;16.326;2023-08-12T07:49:48;26.00;1.00
10566;DHT22;5331;48.148;16.326;2023-08-12T07:52:15;26.30;1.00
10566;DHT22;5331;48.148;16.326;2023-08-12T07:54:42;26.30;1.00
10566;DHT22;5331;48.148;16.326;2023-08-12T07:57:08;26.60;1.00
10566;DHT22;5331;48.148;16.326;2023-08-12T07:59:37;26.80;1.00
10566;DHT22;5331;48.148;16.326;2023-08-12T08:02:04;26.50;1.00
10566;DHT22;5331;48.148;16.326;2023-08-12T08:04:30;26.20;1.00
10566;DHT22;5331;48.148;16.326;2023-08-12T08:06:57;26.00;1.00
10566;DHT22;5331;48.148;16.326;2023-08-12T08:09:24;26.10;1.00
10566;DHT22;5331;48.148;16.326;2023-08-12T08:11:51;26.40;1.00
10566;DHT22;5331;48.148;16.326;2023-08-12T08:14:18;26.60;1.00
10566;DHT22;5331;48.148;16.326;2023-08-12T08:16:46;26.70;1.00
10566;DHT22;5331;48.148;16.326;2023-08-12T08:19:13;26.80;1.00
10566;DHT22;5331;48.148;16.326;2023-08-12T08:21:40;27.00;1.00
10566;DHT22;5331;48.148;16.326;2023-08-12T08:24:07;26.70;1.00
10566;DHT22;5331;48.148;16.326;2023-08-12T08:26:36;26.70;1.00
10566;DHT22;5331;48.148;16.326;2023-08-12T08:29:03;26.70;1.00
10566;DHT22;5331;48.148;16.326;2023-08-12T08:31:30;26.90;1.00
10566;DHT22;5331;48.148;16.326;2023-08-12T08:33:58;26.70;1.00
10566;DHT22;5331;48.148;16.326;2023-08-12T08:36:25;26.70;1.00
10566;DHT22;5331;48.148;16.326;2023-08-12T08:38:52;26.80;1.00
10566;DHT22;5331;48.148;16.326;2023-08-12T08:41:19;26.60;1.00
10566;DHT22;5331;48.148;16.326;2023-08-12T08:43:47;27.00;1.00
10566;DHT22;5331;48.148;16.326;2023-08-12T08:46:15;27.20;1.00
10566;DHT22;5331;48.148;16.326;2023-08-12T08:48:43;27.50;1.00
10566;DHT22;5331;48.148;16.326;2023-08-12T08:51:11;27.60;1.00
10566;DHT22;5331;48.148;16.326;2023-08-12T08:53:39;27.80;1.00
10566;DHT22;5331;48.148;16.326;2023-08-12T08:56:07;27.80;1.00
10566;DHT22;5331;48.148;16.326;2023-08-12T08:58:37;28.00;1.00
10566;DHT22;5331;48.148;16.326;2023-08-12T09:01:05;27.80;1.00
10566;DHT22;5331;48.148;16.326;2023-08-12T09:03:34;27.80;1.00
10566;DHT22;5331;48.148;16.326;2023-08-12T09:06:04;27.50;1.00
10566;DHT22;5331;48.148;16.326;2023-08-12T09:08:33;27.40;1.00
10566;DHT22;5331;48.148;16.326;2023-08-12T09:11:02;27.80;1.00
10566;DHT22;5331;48.148;16.326;2023-08-12T09:13:29;28.20;1.00
10566;DHT22;5331;48.148;16.326;2023-08-12T09:15:56;28.40;1.00
10566;DHT22;5331;48.148;16.326;2023-08-12T09:18:23;28.70;1.00
10566;DHT22;5331;48.148;16.326;2023-08-12T09:20:50;28.80;1.00
10566;DHT22;5331;48.148;16.326;2023-08-12T09:23:17;28.40;1.00
10566;DHT22;5331;48.148;16.326;2023-08-12T09:25:45;28.30;1.00
10566;DHT22;5331;48.148;16.326;2023-08-12T09:28:12;28.40;1.00
10566;DHT22;5331;48.148;16.326;2023-08-12T09:30:40;28.40;1.00
10566;DHT22;5331;48.148;16.326;2023-08-12T09:33:08;28.50;1.00
10566;DHT22;5331;48.148;16.326;2023-08-12T09:35:37;28.60;1.00
10566;DHT22;5331;48.148;16.326;2023-08-12T09:38:06;28.30;1.00
10566;DHT22;5331;48.148;16.326;2023-08-12T09:40:35;28.10;1.00
10566;DHT22;5331;48.148;16.326;2023-08-12T09:43:04;27.90;1.00
10566;DHT22;5331;48.148;16.326;2023-08-12T09:45:31;28.10;1.00
10566;DHT22;5331;48.148;16.326;2023-08-12T09:47:59;28.20;1.00
10566;DHT22;5331;48.148;16.326;2023-08-12T09:50:26;28.40;1.00
10566;DHT22;5331;48.148;16.326;2023-08-12T09:52:55;28.10;1.00
10566;DHT22;5331;48.148;16.326;2023-08-12T09:55:24;28.00;1.00
10566;DHT22;5331;48.148;16.326;2023-08-12T09:57:54;28.20;1.00
10566;DHT22;5331;48.148;16.326;2023-08-12T10:00:23;28.50;1.00
10566;DHT22;5331;48.148;16.326;2023-08-12T10:02:52;28.40;1.00
10566;DHT22;5331;48.148;16.326;2023-08-12T10:05:21;28.50;1.00
10566;DHT22;5331;48.148;16.326;2023-08-12T10:07:49;28.70;1.00
10566;DHT22;5331;48.148;16.326;2023-08-12T10:10:16;28.70;1.00
10566;DHT22;5331;48.148;16.326;2023-08-12T10:12:43;28.60;1.00
10566;DHT22;5331;48.148;16.326;2023-08-12T10:15:11;28.80;1.00
10566;DHT22;5331;48.148;16.326;2023-08-12T10:17:40;28.70;1.00
10566;DHT22;5331;48.148;16.326;2023-08-12T10:20:09;28.70;1.00
10566;DHT22;5331;48.148;16.326;2023-08-12T10:22:38;28.80;1.00
10566;DHT22;5331;48.148;16.326;2023-08-12T10:25:08;28.90;1.00
10566;DHT22;5331;48.148;16.326;2023-08-12T10:27:37;28.80;1.00
10566;DHT22;5331;48.148;16.326;2023-08-12T10:30:05;28.80;1.00
10566;DHT22;5331;48.148;16.326;2023-08-12T10:32:33;28.80;1.00
10566;DHT22;5331;48.148;16.326;2023-08-12T10:35:01;28.70;1.00
10566;DHT22;5331;48.148;16.326;2023-08-12T10:37:32;28.70;1.00
10566;DHT22;5331;48.148;16.326;2023-08-12T10:40:03;28.50;1.00
10566;DHT22;5331;48.148;16.326;2023-08-12T10:42:42;28.50;1.00
10566;DHT22;5331;48.148;16.326;2023-08-12T10:45:09;28.80;1.00
10566;DHT22;5331;48.148;16.326;2023-08-12T10:47:41;28.90;1.00
10566;DHT22;5331;48.148;16.326;2023-08-12T10:50:20;28.90;1.00
10566;DHT22;5331;48.148;16.326;2023-08-12T10:52:50;29.10;1.00
10566;DHT22;5331;48.148;16.326;2023-08-12T10:55:21;29.10;1.00
10566;DHT22;5331;48.148;16.326;2023-08-12T10:57:49;28.90;1.00
10566;DHT22;5331;48.148;16.326;2023-08-12T11:00:17;28.70;1.00
10566;DHT22;5331;48.148;16.326;2023-08-12T11:02:49;28.80;1.00
10566;DHT22;5331;48.148;16.326;2023-08-12T11:05:18;28.70;1.00
10566;DHT22;5331;48.148;16.326;2023-08-12T11:07:47;28.90;1.00
10566;DHT22;5331;48.148;16.326;2023-08-12T11:10:16;28.80;1.00
10566;DHT22;5331;48.148;16.326;2023-08-12T11:12:48;28.70;1.00
10566;DHT22;5331;48.148;16.326;2023-08-12T11:15:15;28.60;1.00
10566;DHT22;5331;48.148;16.326;2023-08-12T11:17:46;28.90;1.00
10566;DHT22;5331;48.148;16.326;2023-08-12T11:20:13;28.90;1.00
10566;DHT22;5331;48.148;16.326;2023-08-12T11:22:42;28.90;1.00
10566;DHT22;5331;48.148;16.326;2023-08-12T11:25:11;28.90;1.00
10566;DHT22;5331;48.148;16.326;2023-08-12T11:27:40;29.10;1.00
10566;DHT22;5331;48.148;16.326;2023-08-12T11:30:08;29.40;1.00
10566;DHT22;5331;48.148;16.326;2023-08-12T11:32:37;29.50;1.00
10566;DHT22;5331;48.148;16.326;2023-08-12T11:35:05;29.30;1.00
10566;DHT22;5331;48.148;16.326;2023-08-12T11:37:32;29.30;1.00
10566;DHT22;5331;48.148;16.326;2023-08-12T11:40:01;29.40;1.00
10566;DHT22;5331;48.148;16.326;2023-08-12T11:42:30;29.40;1.00
10566;DHT22;5331;48.148;16.326;2023-08-12T11:44:56;29.50;1.00
10566;DHT22;5331;48.148;16.326;2023-08-12T11:47:23;29.50;1.00
10566;DHT22;5331;48.148;16.326;2023-08-12T11:49:52;29.60;1.00
10566;DHT22;5331;48.148;16.326;2023-08-12T11:52:19;29.70;1.00
10566;DHT22;5331;48.148;16.326;2023-08-12T11:54:48;29.80;1.00
10566;DHT22;5331;48.148;16.326;2023-08-12T11:57:16;30.10;1.00
10566;DHT22;5331;48.148;16.326;2023-08-12T11:59:43;30.10;1.00
10566;DHT22;5331;48.148;16.326;2023-08-12T12:02:10;30.00;1.00
10566;DHT22;5331;48.148;16.326;2023-08-12T12:04:38;30.00;1.00
10566;DHT22;5331;48.148;16.326;2023-08-12T12:07:17;30.10;1.00
10566;DHT22;5331;48.148;16.326;2023-08-12T12:09:44;29.90;1.00
10566;DHT22;5331;48.148;16.326;2023-08-12T12:12:11;29.90;1.00
10566;DHT22;5331;48.148;16.326;2023-08-12T12:14:39;30.10;1.00
10566;DHT22;5331;48.148;16.326;2023-08-12T12:17:08;30.00;1.00
10566;DHT22;5331;48.148;16.326;2023-08-12T12:19:36;30.10;1.00
10566;DHT22;5331;48.148;16.326;2023-08-12T12:22:03;29.90;1.00
10566;DHT22;5331;48.148;16.326;2023-08-12T12:24:31;29.90;1.00
10566;DHT22;5331;48.148;16.326;2023-08-12T12:26:58;29.40;1.00
10566;DHT22;5331;48.148;16.326;2023-08-12T12:29:25;29.40;1.00
10566;DHT22;5331;48.148;16.326;2023-08-12T12:31:53;29.40;1.00
10566;DHT22;5331;48.148;16.326;2023-08-12T12:34:20;29.50;1.00
10566;DHT22;5331;48.148;16.326;2023-08-12T12:36:47;29.60;1.00
10566;DHT22;5331;48.148;16.326;2023-08-12T12:39:14;29.60;1.00
10566;DHT22;5331;48.148;16.326;2023-08-12T12:41:41;29.70;1.00
10566;DHT22;5331;48.148;16.326;2023-08-12T12:44:07;29.80;1.00
10566;DHT22;5331;48.148;16.326;2023-08-12T12:46:35;30.10;1.00
10566;DHT22;5331;48.148;16.326;2023-08-12T12:49:03;30.10;1.00
10566;DHT22;5331;48.148;16.326;2023-08-12T12:51:30;30.10;1.00
10566;DHT22;5331;48.148;16.326;2023-08-12T12:53:57;30.00;1.00
10566;DHT22;5331;48.148;16.326;2023-08-12T12:56:24;29.90;1.00
10566;DHT22;5331;48.148;16.326;2023-08-12T12:58:51;29.90;1.00
10566;DHT22;5331;48.148;16.326;2023-08-12T13:01:17;29.90;1.00
10566;DHT22;5331;48.148;16.326;2023-08-12T13:03:44;30.00;1.00
10566;DHT22;5331;48.148;16.326;2023-08-12T13:06:13;30.00;1.00
10566;DHT22;5331;48.148;16.326;2023-08-12T13:08:40;30.10;1.00
10566;DHT22;5331;48.148;16.326;2023-08-12T13:11:06;30.10;1.00
10566;DHT22;5331;48.148;16.326;2023-08-12T13:13:33;30.10;1.00
10566;DHT22;5331;48.148;16.326;2023-08-12T13:16:00;29.90;1.00
10566;DHT22;5331;48.148;16.326;2023-08-12T13:18:28;30.00;1.00
10566;DHT22;5331;48.148;16.326;2023-08-12T13:20:54;30.00;1.00
10566;DHT22;5331;48.148;16.326;2023-08-12T13:23:23;30.10;1.00
10566;DHT22;5331;48.148;16.326;2023-08-12T13:25:50;30.20;1.00
10566;DHT22;5331;48.148;16.326;2023-08-12T13:28:16;30.30;1.00
10566;DHT22;5331;48.148;16.326;2023-08-12T13:30:44;30.30;1.00
10566;DHT22;5331;48.148;16.326;2023-08-12T13:33:11;30.20;1.00
10566;DHT22;5331;48.148;16.326;2023-08-12T13:35:38;30.10;1.00
10566;DHT22;5331;48.148;16.326;2023-08-12T13:38:05;30.20;1.00
10566;DHT22;5331;48.148;16.326;2023-08-12T13:40:33;30.40;1.00
10566;DHT22;5331;48.148;16.326;2023-08-12T13:43:00;30.10;1.00
10566;DHT22;5331;48.148;16.326;2023-08-12T13:45:27;30.00;1.00
10566;DHT22;5331;48.148;16.326;2023-08-12T13:47:53;29.90;1.00
10566;DHT22;5331;48.148;16.326;2023-08-12T13:50:21;29.90;1.00
10566;DHT22;5331;48.148;16.326;2023-08-12T13:52:47;29.80;1.00
10566;DHT22;5331;48.148;16.326;2023-08-12T13:55:16;29.80;1.00
10566;DHT22;5331;48.148;16.326;2023-08-12T13:57:44;29.90;1.00
10566;DHT22;5331;48.148;16.326;2023-08-12T14:00:11;30.00;1.00
10566;DHT22;5331;48.148;16.326;2023-08-12T14:02:40;30.00;1.00
10566;DHT22;5331;48.148;16.326;2023-08-12T14:05:07;30.10;1.00
10566;DHT22;5331;48.148;16.326;2023-08-12T14:07:35;30.10;1.00
10566;DHT22;5331;48.148;16.326;2023-08-12T14:10:03;30.20;1.00
10566;DHT22;5331;48.148;16.326;2023-08-12T14:12:30;30.00;1.00
10566;DHT22;5331;48.148;16.326;2023-08-12T14:14:58;29.90;1.00
10566;DHT22;5331;48.148;16.326;2023-08-12T14:17:25;29.80;1.00
10566;DHT22;5331;48.148;16.326;2023-08-12T14:19:52;29.90;1.00
10566;DHT22;5331;48.148;16.326;2023-08-12T14:22:20;29.80;1.00
10566;DHT22;5331;48.148;16.326;2023-08-12T14:24:47;29.80;1.00
10566;DHT22;5331;48.148;16.326;2023-08-12T14:27:14;29.70;1.00
10566;DHT22;5331;48.148;16.326;2023-08-12T14:29:42;29.60;1.00
10566;DHT22;5331;48.148;16.326;2023-08-12T14:32:10;29.50;1.00
10566;DHT22;5331;48.148;16.326;2023-08-12T14:34:37;29.50;1.00
10566;DHT22;5331;48.148;16.326;2023-08-12T14:37:04;29.50;1.00
10566;DHT22;5331;48.148;16.326;2023-08-12T14:39:33;29.50;1.00
10566;DHT22;5331;48.148;16.326;2023-08-12T14:42:00;29.60;1.00
10566;DHT22;5331;48.148;16.326;2023-08-12T14:44:29;29.40;1.00
10566;DHT22;5331;48.148;16.326;2023-08-12T14:46:57;29.60;1.00
10566;DHT22;5331;48.148;16.326;2023-08-12T14:49:25;29.60;1.00
10566;DHT22;5331;48.148;16.326;2023-08-12T14:51:54;29.50;1.00
10566;DHT22;5331;48.148;16.326;2023-08-12T14:54:20;29.60;1.00
10566;DHT22;5331;48.148;16.326;2023-08-12T14:56:47;29.30;1.00
10566;DHT22;5331;48.148;16.326;2023-08-12T14:59:14;29.30;1.00
10566;DHT22;5331;48.148;16.326;2023-08-12T15:01:41;29.40;1.00
10566;DHT22;5331;48.148;16.326;2023-08-12T15:04:08;29.30;1.00
10566;DHT22;5331;48.148;16.326;2023-08-12T15:06:36;29.20;1.00
10566;DHT22;5331;48.148;16.326;2023-08-12T15:09:03;29.10;1.00
10566;DHT22;5331;48.148;16.326;2023-08-12T15:11:31;29.10;1.00
10566;DHT22;5331;48.148;16.326;2023-08-12T15:13:57;29.00;1.00
10566;DHT22;5331;48.148;16.326;2023-08-12T15:16:24;29.10;1.00
10566;DHT22;5331;48.148;16.326;2023-08-12T15:18:51;29.10;1.00
10566;DHT22;5331;48.148;16.326;2023-08-12T15:21:18;29.00;1.00
10566;DHT22;5331;48.148;16.326;2023-08-12T15:23:46;29.00;1.00
10566;DHT22;5331;48.148;16.326;2023-08-12T15:26:13;29.10;1.00
10566;DHT22;5331;48.148;16.326;2023-08-12T15:28:40;29.10;1.00
10566;DHT22;5331;48.148;16.326;2023-08-12T15:31:07;29.10;1.00
10566;DHT22;5331;48.148;16.326;2023-08-12T15:33:34;29.00;1.00
10566;DHT22;5331;48.148;16.326;2023-08-12T15:36:01;29.00;1.00
10566;DHT22;5331;48.148;16.326;2023-08-12T15:38:28;28.90;1.00
10566;DHT22;5331;48.148;16.326;2023-08-12T15:40:56;28.80;1.00
10566;DHT22;5331;48.148;16.326;2023-08-12T15:43:23;28.80;1.00
10566;DHT22;5331;48.148;16.326;2023-08-12T15:45:49;28.70;1.00